Andacollo, Argentina
Current Conditions -  °F | °C
As of 10:00 AM on Friday 19 Dec 2014 (Local Time) from SCIC Reporting Station
Clear Clear  
Wind Chill: 18°   Ceiling: Unl
Heat Index: 18°   Visibility: 6mi
Dew Point:   Wind: 5mph
Humidity: 52%   Direction: 260°W
Pressure: 29.94"   Gusts: NA
Location:  37.05°S, 70.07°W
Report Text: SCIC 191300Z 26004KT CAVOK 18/08 Q1014
Loading
Personal Weather Stations






























Interactive Weather Map New forecast layout! Learn more

10-Day Weather Forecast

Advertisements
Track Severe Weather on mobile